createdAt,value
2022-11-25T00:00:20.927Z,20.54
2022-11-25T00:05:22.312Z,20.54
2022-11-25T00:10:23.685Z,20.54
2022-11-25T00:15:25.064Z,20.47
2022-11-25T00:20:26.437Z,20.50
2022-11-25T00:25:27.835Z,20.50
2022-11-25T00:30:29.361Z,20.51
2022-11-25T00:35:30.729Z,20.50
2022-11-25T00:40:32.100Z,20.49
2022-11-25T00:45:33.569Z,20.47
2022-11-25T00:50:35.083Z,20.46
2022-11-25T00:55:56.475Z,20.47
2022-11-25T01:01:01.763Z,20.49
2022-11-25T01:06:04.231Z,20.52
2022-11-25T01:11:07.931Z,20.53
2022-11-25T01:16:11.746Z,20.51
2022-11-25T01:21:17.463Z,20.50
2022-11-25T01:26:20.444Z,20.54
2022-11-25T01:31:22.560Z,20.50
2022-11-25T01:36:23.980Z,20.49
2022-11-25T01:41:29.514Z,20.49
2022-11-25T01:46:35.283Z,20.49
2022-11-25T01:51:50.856Z,20.47
2022-11-25T01:56:56.135Z,20.52
2022-11-25T02:01:57.517Z,20.44
2022-11-25T02:07:02.011Z,20.50
2022-11-25T02:12:03.481Z,20.49
2022-11-25T02:17:04.866Z,20.44
2022-11-25T02:22:06.720Z,20.49
2022-11-25T02:27:08.103Z,20.50
2022-11-25T02:32:09.495Z,20.48
2022-11-25T02:37:10.911Z,20.47
2022-11-25T02:42:12.286Z,20.50
2022-11-25T02:47:13.659Z,20.49
2022-11-25T02:52:15.144Z,20.49
2022-11-25T02:57:16.536Z,20.56
2022-11-25T03:02:17.983Z,20.52
2022-11-25T03:07:19.430Z,20.50
2022-11-25T03:12:21.011Z,20.50
2022-11-25T03:17:22.404Z,20.47
2022-11-25T03:22:23.779Z,20.48
2022-11-25T03:27:27.994Z,20.46
2022-11-25T03:32:31.699Z,20.43
2022-11-25T03:37:33.063Z,20.44
2022-11-25T03:42:34.455Z,20.45
2022-11-25T03:47:35.827Z,20.43
2022-11-25T03:52:37.232Z,20.48
2022-11-25T03:57:38.620Z,20.45
2022-11-25T04:02:40.042Z,20.48
2022-11-25T04:07:41.500Z,20.50
2022-11-25T04:12:49.057Z,20.46
2022-11-25T04:17:50.434Z,20.46
2022-11-25T04:22:51.803Z,20.53
2022-11-25T04:27:53.194Z,20.50
2022-11-25T04:32:54.575Z,20.50
2022-11-25T04:37:55.932Z,20.51
2022-11-25T04:43:03.461Z,20.47
2022-11-25T04:48:07.534Z,20.45
2022-11-25T04:53:08.935Z,20.46
2022-11-25T04:58:11.161Z,20.43
2022-11-25T05:03:12.520Z,20.45
2022-11-25T05:08:13.880Z,20.48
2022-11-25T05:13:15.250Z,20.45
2022-11-25T05:18:16.640Z,20.52
2022-11-25T05:23:18.013Z,20.46
2022-11-25T05:28:19.371Z,20.45
2022-11-25T05:33:20.904Z,20.45
2022-11-25T05:38:22.268Z,20.45
2022-11-25T05:43:23.630Z,20.45
2022-11-25T05:48:25.196Z,20.44
2022-11-25T05:53:26.736Z,20.45
2022-11-25T05:58:28.615Z,20.48
2022-11-25T06:03:30.198Z,20.53
2022-11-25T06:08:31.600Z,20.45
2022-11-25T06:13:34.155Z,20.45
2022-11-25T06:18:36.395Z,20.47
2022-11-25T06:23:37.969Z,20.61
2022-11-25T06:28:39.383Z,20.66
2022-11-25T06:33:40.924Z,20.66
2022-11-25T06:38:45.755Z,20.81
2022-11-25T06:43:47.116Z,20.85
2022-11-25T06:48:48.500Z,20.91
2022-11-25T06:53:49.895Z,20.91
2022-11-25T06:58:51.686Z,20.84
2022-11-25T07:03:58.775Z,21.00
2022-11-25T07:09:00.187Z,21.01
2022-11-25T07:14:03.026Z,21.12
2022-11-25T07:19:04.392Z,21.09
2022-11-25T07:24:06.889Z,21.14
2022-11-25T07:29:29.318Z,21.06
2022-11-25T07:34:31.749Z,21.14
2022-11-25T07:39:33.140Z,21.10
2022-11-25T07:44:34.545Z,21.07
2022-11-25T07:49:36.146Z,21.09
2022-11-25T07:54:37.765Z,21.13
2022-11-25T07:59:41.210Z,21.17
2022-11-25T08:04:42.575Z,21.24
2022-11-25T08:09:43.951Z,21.09
2022-11-25T08:14:48.353Z,21.12
2022-11-25T08:19:49.835Z,21.23
2022-11-25T08:24:51.204Z,21.21
2022-11-25T08:29:52.567Z,21.11
2022-11-25T08:34:53.931Z,21.16
2022-11-25T08:39:56.026Z,21.20
2022-11-25T08:44:57.707Z,21.23
2022-11-25T08:49:59.063Z,21.22
2022-11-25T08:55:01.001Z,21.24
2022-11-25T09:00:03.493Z,21.35
2022-11-25T09:05:05.120Z,21.26
2022-11-25T09:10:08.324Z,21.31
2022-11-25T09:15:10.416Z,21.21
2022-11-25T09:20:12.114Z,21.27
2022-11-25T09:25:13.495Z,21.30
2022-11-25T09:30:14.998Z,21.37
2022-11-25T09:35:16.839Z,21.32
2022-11-25T09:40:35.212Z,21.35
2022-11-25T09:46:15.285Z,21.32
2022-11-25T09:51:24.838Z,21.35
2022-11-25T09:56:33.568Z,21.35
2022-11-25T10:01:38.567Z,21.39
2022-11-25T10:06:55.490Z,21.39
2022-11-25T10:12:00.446Z,21.29
2022-11-25T10:17:20.487Z,21.31
2022-11-25T10:22:26.675Z,21.36
2022-11-25T10:27:46.067Z,21.30
2022-11-25T10:33:11.597Z,21.33
2022-11-25T10:38:18.934Z,21.28
2022-11-25T10:43:20.807Z,21.29
2022-11-25T10:48:40.000Z,21.29
2022-11-25T10:54:10.677Z,21.27
2022-11-25T10:59:23.138Z,21.29
2022-11-25T11:04:24.520Z,21.31
2022-11-25T11:09:35.715Z,21.34
2022-11-25T11:14:37.397Z,21.32
2022-11-25T11:19:38.955Z,21.32
2022-11-25T11:24:42.357Z,21.28
2022-11-25T11:29:43.722Z,21.28
2022-11-25T11:34:50.745Z,21.21
2022-11-25T11:40:38.427Z,21.32
2022-11-25T11:45:49.030Z,21.35
2022-11-25T11:50:51.072Z,21.40
2022-11-25T11:56:35.940Z,21.37
2022-11-25T12:02:00.361Z,21.43
2022-11-25T12:07:06.161Z,21.38
2022-11-25T12:12:09.271Z,21.44
2022-11-25T12:17:17.788Z,21.51
2022-11-25T12:22:23.555Z,21.51
2022-11-25T12:27:34.961Z,21.51
2022-11-25T12:32:59.897Z,21.47
2022-11-25T12:38:04.208Z,21.53
2022-11-25T12:43:28.664Z,21.49
2022-11-25T12:48:30.043Z,21.58
2022-11-25T12:53:35.633Z,21.55
2022-11-25T12:58:53.330Z,21.50
2022-11-25T13:04:23.343Z,21.59
2022-11-25T13:09:46.556Z,21.55
2022-11-25T13:15:19.240Z,21.57
2022-11-25T13:20:23.746Z,21.55
2022-11-25T13:25:25.788Z,21.53
2022-11-25T13:30:33.324Z,21.53
2022-11-25T13:35:35.572Z,21.59
2022-11-25T13:40:38.392Z,21.61
2022-11-25T13:45:42.878Z,21.67
2022-11-25T13:51:11.941Z,21.52
2022-11-25T13:56:21.929Z,21.46
2022-11-25T14:01:29.510Z,21.38
2022-11-25T14:06:39.929Z,21.26
2022-11-25T14:11:59.855Z,21.16
2022-11-25T14:17:04.526Z,21.13
2022-11-25T14:22:32.859Z,21.11
2022-11-25T14:27:34.288Z,21.09
2022-11-25T14:32:57.513Z,20.98
2022-11-25T14:38:12.764Z,20.92
2022-11-25T14:43:22.552Z,20.93
2022-11-25T14:48:25.841Z,20.88
2022-11-25T14:53:27.812Z,20.87
2022-11-25T14:58:29.283Z,20.86
2022-11-25T15:03:30.728Z,20.89
2022-11-25T15:08:58.157Z,20.84
2022-11-25T15:14:01.823Z,20.81
2022-11-25T15:19:04.811Z,20.81
2022-11-25T15:24:06.423Z,20.78
2022-11-25T15:29:12.002Z,20.78
2022-11-25T15:34:13.989Z,20.79
2022-11-25T15:39:21.680Z,20.77
2022-11-25T15:44:27.572Z,20.77
2022-11-25T15:49:29.942Z,20.74
2022-11-25T15:54:32.969Z,20.73
2022-11-25T15:59:55.434Z,20.72
2022-11-25T16:05:16.489Z,20.73
2022-11-25T16:10:56.402Z,20.72
2022-11-25T16:16:01.782Z,20.71
2022-11-25T16:21:05.035Z,20.75
2022-11-25T16:26:12.315Z,20.71
2022-11-25T16:31:15.495Z,20.70
2022-11-25T16:36:16.943Z,20.70
2022-11-25T16:41:24.189Z,20.72
2022-11-25T16:46:25.760Z,20.70
2022-11-25T16:51:27.294Z,20.68
2022-11-25T16:56:28.663Z,20.68
2022-11-25T17:01:30.154Z,20.66
2022-11-25T17:06:31.715Z,20.63
2022-11-25T17:11:35.363Z,20.63
2022-11-25T17:16:36.754Z,20.63
2022-11-25T17:21:38.152Z,20.57
2022-11-25T17:26:40.281Z,20.54
2022-11-25T17:31:41.723Z,20.58
2022-11-25T17:36:43.688Z,20.59
2022-11-25T17:41:46.288Z,20.57
2022-11-25T17:46:47.673Z,20.57
2022-11-25T17:51:49.096Z,20.53
2022-11-25T17:56:52.582Z,20.57
2022-11-25T18:01:55.899Z,20.54
2022-11-25T18:06:57.541Z,20.59
2022-11-25T18:11:59.523Z,20.58
2022-11-25T18:17:02.021Z,20.58
2022-11-25T18:22:17.958Z,20.57
2022-11-25T18:27:20.801Z,20.54
2022-11-25T18:32:23.321Z,20.58
2022-11-25T18:37:25.123Z,20.58
2022-11-25T18:42:26.941Z,20.61
2022-11-25T18:47:28.360Z,20.59
2022-11-25T18:52:29.762Z,20.59
2022-11-25T18:57:31.139Z,20.62
2022-11-25T19:02:32.600Z,20.61
2022-11-25T19:07:34.074Z,20.53
2022-11-25T19:12:35.524Z,20.61
2022-11-25T19:17:37.031Z,20.60
2022-11-25T19:22:38.402Z,20.58
2022-11-25T19:27:42.554Z,20.59
2022-11-25T19:32:44.897Z,20.55
2022-11-25T19:37:46.271Z,20.54
2022-11-25T19:42:48.451Z,20.56
2022-11-25T19:47:50.413Z,20.58
2022-11-25T19:52:51.844Z,20.58
2022-11-25T19:57:54.361Z,20.58
2022-11-25T20:02:56.148Z,20.58
2022-11-25T20:07:57.615Z,20.57
2022-11-25T20:12:59.132Z,20.58
2022-11-25T20:18:00.634Z,20.61
2022-11-25T20:23:16.559Z,20.57
2022-11-25T20:28:19.657Z,20.55
2022-11-25T20:33:24.252Z,20.55
2022-11-25T20:38:27.548Z,20.54
2022-11-25T20:43:33.310Z,20.58
2022-11-25T20:48:37.276Z,20.51
2022-11-25T20:53:38.684Z,20.48
2022-11-25T20:58:40.063Z,20.53
2022-11-25T21:03:42.497Z,20.49
2022-11-25T21:08:45.244Z,20.47
2022-11-25T21:13:46.817Z,20.54
2022-11-25T21:18:48.207Z,20.52
2022-11-25T21:23:49.632Z,20.58
2022-11-25T21:28:51.844Z,20.53
2022-11-25T21:33:55.939Z,20.55
2022-11-25T21:39:02.055Z,20.55
2022-11-25T21:44:04.339Z,20.56
2022-11-25T21:49:10.492Z,20.55
2022-11-25T21:54:11.868Z,20.52
2022-11-25T21:59:17.236Z,20.55
2022-11-25T22:04:20.360Z,20.55
2022-11-25T22:09:22.084Z,20.56
2022-11-25T22:14:29.559Z,20.54
2022-11-25T22:19:30.928Z,20.56
2022-11-25T22:24:32.312Z,20.52
2022-11-25T22:29:34.495Z,20.52
2022-11-25T22:34:36.125Z,20.52
2022-11-25T22:39:37.716Z,20.54
2022-11-25T22:44:46.639Z,20.53
2022-11-25T22:49:48.231Z,20.51
2022-11-25T22:54:49.805Z,20.54
2022-11-25T22:59:51.182Z,20.55
2022-11-25T23:04:53.520Z,20.53
2022-11-25T23:09:56.482Z,20.53
2022-11-25T23:14:57.907Z,20.55
2022-11-25T23:19:59.267Z,20.48
2022-11-25T23:25:00.647Z,20.53
2022-11-25T23:30:02.040Z,20.52
2022-11-25T23:35:03.488Z,20.53
2022-11-25T23:40:05.332Z,20.50
2022-11-25T23:45:07.411Z,20.53
2022-11-25T23:50:23.778Z,20.49
2022-11-25T23:55:27.476Z,20.42
